McCook Municipal, NE

1:16 AM CDT en Agosto 21, 2014 (GMT -0500)
McCook Municipal | Change Station
CLOSE
Current Station
Aeropuerto
Location: McCook,
Altura: 2579 ft
Estaciones meteorológicas cercanas

Alt 2579 ft 40.20 °N, 100.59 °W | Updated 23 minutes ago

Clear
Despejado
75 ° F
Sensación térmica 75 ° F
N
6
Viento Variable Viento desde ENE

Hoy
Alta -- | Baja -- ° F
--% Posibilidad de precipitaciones
Ayer
Alta -- | Baja -- ° F
Precip. -- pul
6:59 AM 8:30 PM
Creciente menguante, 16% visible
Presión 29.70 pul
Visibilidad 10.0 Millas
Nubes Despejado
Punto de rocío 62 ° F
Humedad 64%
Precipitaciones 0.00 pul
Espesor de la nieve No disponible.
UV 0 de una escala de 12
Polen 10.50 de una escala de 12
Calidad del aire No disponible.
Flu Activity No disponible.
METAR KMCK 210553Z AUTO 07005KT 10SM CLR 24/17 A2979 RMK AO2 SLP056 T02390167 10328 20239 403670222 50016

More Conditions Fewer Conditions

Presión 29.70 pul
Visibilidad 10.0 Millas
Nubes Despejado
Punto de rocío 62 ° F
Humedad 64%
Precipitaciones 0.00 pul
Espesor de la nieve No disponible.
UV 0 de una escala de 12
Polen 10.50 de una escala de 12
Calidad del aire No disponible.
Flu Activity No disponible.
METAR KMCK 210553Z AUTO 07005KT 10SM CLR 24/17 A2979 RMK AO2 SLP056 T02390167 10328 20239 403670222 50016

More Conditions Fewer Conditions

10-Day Weather Forecast

Almanac

Astronomía

Aug. 21, 2014 Salida Puesta
Hora real 6:59 AM CDT 8:30 PM CDT
Crepúsculo civil 6:30 AM CDT 8:59 PM CDT
Crepúsculo náutico 5:56 AM CDT 9:33 PM CDT
Crepúsculo astronómico 5:19 AM CDT 10:10 PM CDT
Luna 3:31 AM CDT 6:00 PM CDT
Horas de luz 14h 28m
Horas de luz
13h 31m
Tomorrow will be 2m 26s shorter.
Creciente menguante, 16% of the Moon is Illuminated
Hoy
Creciente menguante
Ago 25
Nueva
Sep 2
Cuarto creciente
Sep 8
Luna llena
Sep 15
Cuarto menguante

Extremos de hoy

Máximos del estado Bajos del estado

Community

WunderPhotos

Upload Photos

1,745,858 ¡fotos cargadas!

Nearby

Grosos de nieve

Estación Profundido Altura
No tenemos constancia de nieve nueva.

Actividad de terremotos

Ciudad Distance Mag. Tiempo y dato
No hay informes recientes de la actividad sísmica.
Magnitud mínima muestra es 2,5.

Temperaturas de aguas costeras

Lugar Temperatura
Sin partes meteorológicos de las estaciones

Estaciones meteorológicas cercanas